sensor_id;sensor_type;location;lat;lon;timestamp;P1;durP1;ratioP1;P2;durP2;ratioP2
11709;SDS011;5911;51.036;6.972;2023-12-29T00:01:42;2.23;;;1.53;;
11709;SDS011;5911;51.036;6.972;2023-12-29T00:04:09;2.60;;;1.35;;
11709;SDS011;5911;51.036;6.972;2023-12-29T00:06:37;2.97;;;1.20;;
11709;SDS011;5911;51.036;6.972;2023-12-29T00:09:20;2.90;;;1.60;;
11709;SDS011;5911;51.036;6.972;2023-12-29T00:11:48;3.10;;;1.00;;
11709;SDS011;5911;51.036;6.972;2023-12-29T00:14:16;2.60;;;1.20;;
11709;SDS011;5911;51.036;6.972;2023-12-29T00:16:43;2.83;;;1.30;;
11709;SDS011;5911;51.036;6.972;2023-12-29T00:19:11;1.57;;;1.07;;
11709;SDS011;5911;51.036;6.972;2023-12-29T00:21:39;2.47;;;1.30;;
11709;SDS011;5911;51.036;6.972;2023-12-29T00:24:07;2.60;;;1.40;;
11709;SDS011;5911;51.036;6.972;2023-12-29T00:26:36;1.77;;;1.25;;
11709;SDS011;5911;51.036;6.972;2023-12-29T00:29:03;2.53;;;1.10;;
11709;SDS011;5911;51.036;6.972;2023-12-29T00:31:32;2.87;;;1.20;;
11709;SDS011;5911;51.036;6.972;2023-12-29T00:34:00;3.30;;;1.90;;
11709;SDS011;5911;51.036;6.972;2023-12-29T00:36:28;3.03;;;1.20;;
11709;SDS011;5911;51.036;6.972;2023-12-29T00:38:55;3.03;;;1.13;;
11709;SDS011;5911;51.036;6.972;2023-12-29T00:41:23;3.17;;;1.20;;
11709;SDS011;5911;51.036;6.972;2023-12-29T00:43:52;2.77;;;1.10;;
11709;SDS011;5911;51.036;6.972;2023-12-29T00:46:20;2.17;;;1.10;;
11709;SDS011;5911;51.036;6.972;2023-12-29T00:48:47;2.43;;;1.00;;
11709;SDS011;5911;51.036;6.972;2023-12-29T00:51:15;2.85;;;1.52;;
11709;SDS011;5911;51.036;6.972;2023-12-29T00:53:43;3.10;;;1.20;;
11709;SDS011;5911;51.036;6.972;2023-12-29T00:56:10;2.88;;;1.20;;
11709;SDS011;5911;51.036;6.972;2023-12-29T00:58:38;2.73;;;1.00;;
11709;SDS011;5911;51.036;6.972;2023-12-29T01:01:08;3.23;;;1.53;;
11709;SDS011;5911;51.036;6.972;2023-12-29T01:03:38;2.37;;;1.10;;
11709;SDS011;5911;51.036;6.972;2023-12-29T01:06:06;3.43;;;1.10;;
11709;SDS011;5911;51.036;6.972;2023-12-29T01:08:33;3.40;;;1.50;;
11709;SDS011;5911;51.036;6.972;2023-12-29T01:11:01;2.38;;;1.10;;
11709;SDS011;5911;51.036;6.972;2023-12-29T01:13:28;3.47;;;1.40;;
11709;SDS011;5911;51.036;6.972;2023-12-29T01:15:56;3.77;;;1.37;;
11709;SDS011;5911;51.036;6.972;2023-12-29T01:18:25;2.67;;;1.20;;
11709;SDS011;5911;51.036;6.972;2023-12-29T01:20:52;6.63;;;1.58;;
11709;SDS011;5911;51.036;6.972;2023-12-29T01:23:20;4.93;;;1.40;;
11709;SDS011;5911;51.036;6.972;2023-12-29T01:25:48;2.78;;;1.20;;
11709;SDS011;5911;51.036;6.972;2023-12-29T01:28:16;4.25;;;1.45;;
11709;SDS011;5911;51.036;6.972;2023-12-29T01:30:43;3.80;;;1.30;;
11709;SDS011;5911;51.036;6.972;2023-12-29T01:33:11;2.40;;;1.20;;
11709;SDS011;5911;51.036;6.972;2023-12-29T01:35:40;2.37;;;1.33;;
11709;SDS011;5911;51.036;6.972;2023-12-29T01:38:07;1.38;;;1.00;;
11709;SDS011;5911;51.036;6.972;2023-12-29T01:40:41;4.40;;;1.30;;
11709;SDS011;5911;51.036;6.972;2023-12-29T01:43:09;3.78;;;1.30;;
11709;SDS011;5911;51.036;6.972;2023-12-29T01:45:37;4.37;;;1.70;;
11709;SDS011;5911;51.036;6.972;2023-12-29T01:48:21;5.43;;;1.67;;
11709;SDS011;5911;51.036;6.972;2023-12-29T01:50:50;4.57;;;1.23;;
11709;SDS011;5911;51.036;6.972;2023-12-29T01:53:18;4.00;;;1.38;;
11709;SDS011;5911;51.036;6.972;2023-12-29T01:55:56;2.93;;;1.30;;
11709;SDS011;5911;51.036;6.972;2023-12-29T01:58:25;3.53;;;1.60;;
11709;SDS011;5911;51.036;6.972;2023-12-29T02:00:53;4.03;;;1.50;;
11709;SDS011;5911;51.036;6.972;2023-12-29T02:03:21;3.03;;;1.48;;
11709;SDS011;5911;51.036;6.972;2023-12-29T02:05:49;4.87;;;1.80;;
11709;SDS011;5911;51.036;6.972;2023-12-29T02:08:18;3.83;;;1.60;;
11709;SDS011;5911;51.036;6.972;2023-12-29T02:10:46;2.93;;;1.10;;
11709;SDS011;5911;51.036;6.972;2023-12-29T02:13:14;2.87;;;1.50;;
11709;SDS011;5911;51.036;6.972;2023-12-29T02:15:42;4.00;;;2.00;;
11709;SDS011;5911;51.036;6.972;2023-12-29T02:18:12;2.80;;;1.60;;
11709;SDS011;5911;51.036;6.972;2023-12-29T02:20:41;3.83;;;1.85;;
11709;SDS011;5911;51.036;6.972;2023-12-29T02:23:09;3.80;;;1.33;;
11709;SDS011;5911;51.036;6.972;2023-12-29T02:25:38;3.23;;;1.50;;
11709;SDS011;5911;51.036;6.972;2023-12-29T02:28:09;2.83;;;1.23;;
11709;SDS011;5911;51.036;6.972;2023-12-29T02:30:38;3.53;;;1.57;;
11709;SDS011;5911;51.036;6.972;2023-12-29T02:33:10;4.30;;;1.25;;
11709;SDS011;5911;51.036;6.972;2023-12-29T02:35:38;3.03;;;1.60;;
11709;SDS011;5911;51.036;6.972;2023-12-29T02:38:06;4.00;;;1.50;;
11709;SDS011;5911;51.036;6.972;2023-12-29T02:40:34;5.95;;;2.00;;
11709;SDS011;5911;51.036;6.972;2023-12-29T02:43:03;4.32;;;1.73;;
11709;SDS011;5911;51.036;6.972;2023-12-29T02:45:31;6.60;;;1.50;;
11709;SDS011;5911;51.036;6.972;2023-12-29T02:47:58;5.40;;;1.47;;
11709;SDS011;5911;51.036;6.972;2023-12-29T02:50:26;6.22;;;1.77;;
11709;SDS011;5911;51.036;6.972;2023-12-29T02:52:53;7.82;;;2.45;;
11709;SDS011;5911;51.036;6.972;2023-12-29T02:55:21;2.87;;;1.23;;
11709;SDS011;5911;51.036;6.972;2023-12-29T02:57:49;4.67;;;1.90;;
11709;SDS011;5911;51.036;6.972;2023-12-29T03:00:18;5.25;;;2.00;;
11709;SDS011;5911;51.036;6.972;2023-12-29T03:02:46;7.07;;;1.88;;
11709;SDS011;5911;51.036;6.972;2023-12-29T03:05:13;4.80;;;1.53;;
11709;SDS011;5911;51.036;6.972;2023-12-29T03:07:42;5.47;;;1.77;;
11709;SDS011;5911;51.036;6.972;2023-12-29T03:10:09;5.28;;;1.50;;
11709;SDS011;5911;51.036;6.972;2023-12-29T03:12:37;4.95;;;1.70;;
11709;SDS011;5911;51.036;6.972;2023-12-29T03:15:05;5.43;;;1.50;;
11709;SDS011;5911;51.036;6.972;2023-12-29T03:17:34;3.78;;;1.50;;
11709;SDS011;5911;51.036;6.972;2023-12-29T03:20:02;3.42;;;1.58;;
11709;SDS011;5911;51.036;6.972;2023-12-29T03:22:31;4.78;;;1.95;;
11709;SDS011;5911;51.036;6.972;2023-12-29T03:24:58;6.53;;;1.80;;
11709;SDS011;5911;51.036;6.972;2023-12-29T03:27:26;3.60;;;1.45;;
11709;SDS011;5911;51.036;6.972;2023-12-29T03:29:54;5.37;;;1.90;;
11709;SDS011;5911;51.036;6.972;2023-12-29T03:32:21;3.37;;;1.30;;
11709;SDS011;5911;51.036;6.972;2023-12-29T03:34:50;3.80;;;1.20;;
11709;SDS011;5911;51.036;6.972;2023-12-29T03:37:18;3.45;;;1.40;;
11709;SDS011;5911;51.036;6.972;2023-12-29T03:39:46;5.27;;;1.57;;
11709;SDS011;5911;51.036;6.972;2023-12-29T03:42:13;3.83;;;1.57;;
11709;SDS011;5911;51.036;6.972;2023-12-29T03:44:41;3.72;;;1.73;;
11709;SDS011;5911;51.036;6.972;2023-12-29T03:47:08;3.93;;;1.40;;
11709;SDS011;5911;51.036;6.972;2023-12-29T03:49:36;5.03;;;2.00;;
11709;SDS011;5911;51.036;6.972;2023-12-29T03:52:06;6.00;;;1.57;;
11709;SDS011;5911;51.036;6.972;2023-12-29T03:54:33;2.60;;;1.20;;
11709;SDS011;5911;51.036;6.972;2023-12-29T03:57:01;4.50;;;1.70;;
11709;SDS011;5911;51.036;6.972;2023-12-29T03:59:28;3.50;;;1.42;;
11709;SDS011;5911;51.036;6.972;2023-12-29T04:01:56;3.10;;;1.50;;
11709;SDS011;5911;51.036;6.972;2023-12-29T04:04:23;3.75;;;1.02;;
11709;SDS011;5911;51.036;6.972;2023-12-29T04:06:51;8.85;;;2.05;;
11709;SDS011;5911;51.036;6.972;2023-12-29T04:09:20;3.35;;;1.25;;
11709;SDS011;5911;51.036;6.972;2023-12-29T04:11:48;2.93;;;1.30;;
11709;SDS011;5911;51.036;6.972;2023-12-29T04:14:15;4.85;;;1.42;;
11709;SDS011;5911;51.036;6.972;2023-12-29T04:16:43;8.07;;;1.33;;
11709;SDS011;5911;51.036;6.972;2023-12-29T04:19:11;5.07;;;1.92;;
11709;SDS011;5911;51.036;6.972;2023-12-29T04:21:41;7.32;;;1.75;;
11709;SDS011;5911;51.036;6.972;2023-12-29T04:24:11;5.03;;;1.43;;
11709;SDS011;5911;51.036;6.972;2023-12-29T04:26:40;3.30;;;1.20;;
11709;SDS011;5911;51.036;6.972;2023-12-29T04:29:07;3.60;;;1.08;;
11709;SDS011;5911;51.036;6.972;2023-12-29T04:31:35;2.75;;;1.10;;
11709;SDS011;5911;51.036;6.972;2023-12-29T04:34:02;4.45;;;1.30;;
11709;SDS011;5911;51.036;6.972;2023-12-29T04:36:30;3.07;;;1.47;;
11709;SDS011;5911;51.036;6.972;2023-12-29T04:38:58;6.30;;;1.52;;
11709;SDS011;5911;51.036;6.972;2023-12-29T04:41:25;2.55;;;1.23;;
11709;SDS011;5911;51.036;6.972;2023-12-29T04:43:54;4.20;;;1.50;;
11709;SDS011;5911;51.036;6.972;2023-12-29T04:46:21;3.63;;;1.63;;
11709;SDS011;5911;51.036;6.972;2023-12-29T04:48:49;5.45;;;1.60;;
11709;SDS011;5911;51.036;6.972;2023-12-29T04:51:16;4.37;;;1.37;;
11709;SDS011;5911;51.036;6.972;2023-12-29T04:53:44;6.13;;;1.73;;
11709;SDS011;5911;51.036;6.972;2023-12-29T04:56:11;4.07;;;1.47;;
11709;SDS011;5911;51.036;6.972;2023-12-29T04:58:39;6.03;;;1.70;;
11709;SDS011;5911;51.036;6.972;2023-12-29T05:01:08;3.20;;;1.42;;
11709;SDS011;5911;51.036;6.972;2023-12-29T05:03:35;5.90;;;1.60;;
11709;SDS011;5911;51.036;6.972;2023-12-29T05:06:03;3.13;;;1.45;;
11709;SDS011;5911;51.036;6.972;2023-12-29T05:08:31;5.00;;;1.40;;
11709;SDS011;5911;51.036;6.972;2023-12-29T05:10:58;4.78;;;1.80;;
11709;SDS011;5911;51.036;6.972;2023-12-29T05:13:26;4.73;;;1.37;;
11709;SDS011;5911;51.036;6.972;2023-12-29T05:15:53;4.40;;;1.10;;
11709;SDS011;5911;51.036;6.972;2023-12-29T05:18:22;5.67;;;1.43;;
11709;SDS011;5911;51.036;6.972;2023-12-29T05:20:50;4.18;;;1.40;;
11709;SDS011;5911;51.036;6.972;2023-12-29T05:23:17;7.60;;;1.77;;
11709;SDS011;5911;51.036;6.972;2023-12-29T05:25:45;3.73;;;1.37;;
11709;SDS011;5911;51.036;6.972;2023-12-29T05:28:12;6.60;;;1.48;;
11709;SDS011;5911;51.036;6.972;2023-12-29T05:30:40;5.50;;;1.70;;
11709;SDS011;5911;51.036;6.972;2023-12-29T05:33:07;5.23;;;1.40;;
11709;SDS011;5911;51.036;6.972;2023-12-29T05:35:37;4.10;;;1.00;;
11709;SDS011;5911;51.036;6.972;2023-12-29T05:38:04;5.32;;;1.50;;
11709;SDS011;5911;51.036;6.972;2023-12-29T05:40:32;2.67;;;1.40;;
11709;SDS011;5911;51.036;6.972;2023-12-29T05:42:59;4.45;;;1.67;;
11709;SDS011;5911;51.036;6.972;2023-12-29T05:45:27;5.20;;;1.63;;
11709;SDS011;5911;51.036;6.972;2023-12-29T05:47:54;5.25;;;1.40;;
11709;SDS011;5911;51.036;6.972;2023-12-29T05:50:22;5.20;;;1.50;;
11709;SDS011;5911;51.036;6.972;2023-12-29T05:52:51;2.63;;;1.20;;
11709;SDS011;5911;51.036;6.972;2023-12-29T05:55:19;5.00;;;1.73;;
11709;SDS011;5911;51.036;6.972;2023-12-29T05:57:46;3.08;;;1.40;;
11709;SDS011;5911;51.036;6.972;2023-12-29T06:00:14;5.73;;;1.43;;
11709;SDS011;5911;51.036;6.972;2023-12-29T06:02:42;6.07;;;1.37;;
11709;SDS011;5911;51.036;6.972;2023-12-29T06:05:10;6.60;;;1.47;;
11709;SDS011;5911;51.036;6.972;2023-12-29T06:07:38;2.87;;;1.30;;
11709;SDS011;5911;51.036;6.972;2023-12-29T06:10:07;3.63;;;1.20;;
11709;SDS011;5911;51.036;6.972;2023-12-29T06:12:35;2.92;;;1.30;;
11709;SDS011;5911;51.036;6.972;2023-12-29T06:15:04;3.28;;;1.30;;
11709;SDS011;5911;51.036;6.972;2023-12-29T06:17:30;3.85;;;1.33;;
11709;SDS011;5911;51.036;6.972;2023-12-29T06:19:58;3.85;;;1.40;;
11709;SDS011;5911;51.036;6.972;2023-12-29T06:22:26;4.00;;;1.23;;
11709;SDS011;5911;51.036;6.972;2023-12-29T06:24:54;4.97;;;1.33;;
11709;SDS011;5911;51.036;6.972;2023-12-29T06:27:24;4.93;;;1.23;;
11709;SDS011;5911;51.036;6.972;2023-12-29T06:29:51;2.67;;;1.20;;
11709;SDS011;5911;51.036;6.972;2023-12-29T06:32:19;4.50;;;1.37;;
11709;SDS011;5911;51.036;6.972;2023-12-29T06:34:47;3.92;;;1.38;;
11709;SDS011;5911;51.036;6.972;2023-12-29T06:37:15;5.68;;;1.48;;
11709;SDS011;5911;51.036;6.972;2023-12-29T06:39:42;4.17;;;1.47;;
11709;SDS011;5911;51.036;6.972;2023-12-29T06:42:10;4.97;;;1.53;;
11709;SDS011;5911;51.036;6.972;2023-12-29T06:44:39;3.23;;;1.47;;
11709;SDS011;5911;51.036;6.972;2023-12-29T06:47:06;4.07;;;1.38;;
11709;SDS011;5911;51.036;6.972;2023-12-29T06:49:34;2.35;;;1.50;;
11709;SDS011;5911;51.036;6.972;2023-12-29T06:52:02;5.25;;;1.45;;
11709;SDS011;5911;51.036;6.972;2023-12-29T06:54:29;4.30;;;1.27;;
11709;SDS011;5911;51.036;6.972;2023-12-29T06:56:57;3.47;;;1.30;;
11709;SDS011;5911;51.036;6.972;2023-12-29T06:59:25;3.08;;;1.15;;
11709;SDS011;5911;51.036;6.972;2023-12-29T07:01:54;5.57;;;1.40;;
11709;SDS011;5911;51.036;6.972;2023-12-29T07:04:21;2.23;;;1.00;;
11709;SDS011;5911;51.036;6.972;2023-12-29T07:06:49;3.97;;;1.27;;
11709;SDS011;5911;51.036;6.972;2023-12-29T07:09:16;2.25;;;1.10;;
11709;SDS011;5911;51.036;6.972;2023-12-29T07:11:46;4.32;;;1.20;;
11709;SDS011;5911;51.036;6.972;2023-12-29T07:14:16;3.90;;;1.10;;
11709;SDS011;5911;51.036;6.972;2023-12-29T07:16:44;2.13;;;0.98;;
11709;SDS011;5911;51.036;6.972;2023-12-29T07:19:13;3.73;;;1.30;;
11709;SDS011;5911;51.036;6.972;2023-12-29T07:21:41;2.73;;;1.00;;
11709;SDS011;5911;51.036;6.972;2023-12-29T07:24:09;2.95;;;1.20;;
11709;SDS011;5911;51.036;6.972;2023-12-29T07:26:37;2.67;;;1.20;;
11709;SDS011;5911;51.036;6.972;2023-12-29T07:29:04;2.80;;;1.07;;
11709;SDS011;5911;51.036;6.972;2023-12-29T07:31:32;3.07;;;1.10;;
11709;SDS011;5911;51.036;6.972;2023-12-29T07:33:59;4.07;;;1.10;;
11709;SDS011;5911;51.036;6.972;2023-12-29T07:36:29;3.92;;;1.60;;
11709;SDS011;5911;51.036;6.972;2023-12-29T07:38:56;1.63;;;1.00;;
11709;SDS011;5911;51.036;6.972;2023-12-29T07:41:24;4.43;;;1.10;;
11709;SDS011;5911;51.036;6.972;2023-12-29T07:43:51;6.30;;;1.30;;
11709;SDS011;5911;51.036;6.972;2023-12-29T07:46:25;2.53;;;1.10;;
11709;SDS011;5911;51.036;6.972;2023-12-29T07:48:53;2.70;;;1.17;;
11709;SDS011;5911;51.036;6.972;2023-12-29T07:51:21;2.88;;;1.25;;
11709;SDS011;5911;51.036;6.972;2023-12-29T07:53:50;2.80;;;0.90;;
11709;SDS011;5911;51.036;6.972;2023-12-29T07:56:17;2.78;;;1.48;;
11709;SDS011;5911;51.036;6.972;2023-12-29T07:58:46;3.83;;;1.20;;
11709;SDS011;5911;51.036;6.972;2023-12-29T08:01:15;2.88;;;1.20;;
11709;SDS011;5911;51.036;6.972;2023-12-29T08:03:43;2.93;;;1.10;;
11709;SDS011;5911;51.036;6.972;2023-12-29T08:06:11;4.97;;;1.58;;
11709;SDS011;5911;51.036;6.972;2023-12-29T08:08:42;6.43;;;2.10;;
11709;SDS011;5911;51.036;6.972;2023-12-29T08:11:15;4.13;;;1.38;;
11709;SDS011;5911;51.036;6.972;2023-12-29T08:13:43;4.38;;;1.42;;
11709;SDS011;5911;51.036;6.972;2023-12-29T08:16:13;1.20;;;0.80;;
11709;SDS011;5911;51.036;6.972;2023-12-29T08:18:40;1.80;;;1.02;;
11709;SDS011;5911;51.036;6.972;2023-12-29T08:21:08;4.85;;;1.45;;
11709;SDS011;5911;51.036;6.972;2023-12-29T08:23:36;3.88;;;1.50;;
11709;SDS011;5911;51.036;6.972;2023-12-29T08:26:03;2.92;;;1.25;;
11709;SDS011;5911;51.036;6.972;2023-12-29T08:28:32;5.22;;;1.63;;
11709;SDS011;5911;51.036;6.972;2023-12-29T08:31:00;2.70;;;1.20;;
11709;SDS011;5911;51.036;6.972;2023-12-29T08:33:28;3.08;;;1.08;;
11709;SDS011;5911;51.036;6.972;2023-12-29T08:35:58;3.43;;;1.10;;
11709;SDS011;5911;51.036;6.972;2023-12-29T08:38:27;3.63;;;1.33;;
11709;SDS011;5911;51.036;6.972;2023-12-29T08:40:55;3.47;;;1.23;;
11709;SDS011;5911;51.036;6.972;2023-12-29T08:43:23;3.70;;;1.45;;
11709;SDS011;5911;51.036;6.972;2023-12-29T08:45:52;4.23;;;1.50;;
11709;SDS011;5911;51.036;6.972;2023-12-29T08:48:20;4.93;;;1.30;;
11709;SDS011;5911;51.036;6.972;2023-12-29T08:50:49;2.23;;;1.20;;
11709;SDS011;5911;51.036;6.972;2023-12-29T08:53:18;3.63;;;1.70;;
11709;SDS011;5911;51.036;6.972;2023-12-29T08:55:46;1.97;;;1.20;;
11709;SDS011;5911;51.036;6.972;2023-12-29T08:58:13;2.73;;;1.07;;
11709;SDS011;5911;51.036;6.972;2023-12-29T09:00:41;3.37;;;1.40;;
11709;SDS011;5911;51.036;6.972;2023-12-29T09:03:13;4.00;;;1.40;;
11709;SDS011;5911;51.036;6.972;2023-12-29T09:05:41;3.80;;;1.10;;
11709;SDS011;5911;51.036;6.972;2023-12-29T09:08:13;4.32;;;1.38;;
11709;SDS011;5911;51.036;6.972;2023-12-29T09:10:46;4.38;;;1.45;;
11709;SDS011;5911;51.036;6.972;2023-12-29T09:13:19;4.68;;;1.83;;
11709;SDS011;5911;51.036;6.972;2023-12-29T09:15:52;2.90;;;1.10;;
11709;SDS011;5911;51.036;6.972;2023-12-29T09:18:21;4.17;;;1.63;;
11709;SDS011;5911;51.036;6.972;2023-12-29T09:20:49;4.47;;;1.17;;
11709;SDS011;5911;51.036;6.972;2023-12-29T09:23:18;1.70;;;1.10;;
11709;SDS011;5911;51.036;6.972;2023-12-29T09:25:49;3.37;;;1.10;;
11709;SDS011;5911;51.036;6.972;2023-12-29T09:28:17;3.93;;;1.00;;
11709;SDS011;5911;51.036;6.972;2023-12-29T09:30:46;2.90;;;1.20;;
11709;SDS011;5911;51.036;6.972;2023-12-29T09:33:14;3.28;;;1.10;;
11709;SDS011;5911;51.036;6.972;2023-12-29T09:35:43;5.35;;;1.17;;
11709;SDS011;5911;51.036;6.972;2023-12-29T09:38:11;3.80;;;1.10;;
11709;SDS011;5911;51.036;6.972;2023-12-29T09:40:38;2.33;;;0.93;;
11709;SDS011;5911;51.036;6.972;2023-12-29T09:43:06;2.00;;;0.93;;
11709;SDS011;5911;51.036;6.972;2023-12-29T09:45:35;2.30;;;1.50;;
11709;SDS011;5911;51.036;6.972;2023-12-29T09:48:07;2.33;;;1.23;;
11709;SDS011;5911;51.036;6.972;2023-12-29T09:50:36;4.40;;;1.40;;
11709;SDS011;5911;51.036;6.972;2023-12-29T09:53:06;3.28;;;1.00;;
11709;SDS011;5911;51.036;6.972;2023-12-29T09:55:34;2.00;;;1.00;;
11709;SDS011;5911;51.036;6.972;2023-12-29T09:58:02;4.00;;;1.17;;
11709;SDS011;5911;51.036;6.972;2023-12-29T10:00:30;3.60;;;1.40;;
11709;SDS011;5911;51.036;6.972;2023-12-29T10:02:58;3.57;;;1.10;;
11709;SDS011;5911;51.036;6.972;2023-12-29T10:05:26;1.50;;;0.80;;
11709;SDS011;5911;51.036;6.972;2023-12-29T10:07:53;1.73;;;1.00;;
11709;SDS011;5911;51.036;6.972;2023-12-29T10:10:23;1.33;;;0.80;;
11709;SDS011;5911;51.036;6.972;2023-12-29T10:12:51;4.73;;;1.43;;
11709;SDS011;5911;51.036;6.972;2023-12-29T10:15:20;1.87;;;0.80;;
11709;SDS011;5911;51.036;6.972;2023-12-29T10:17:51;2.37;;;0.87;;
11709;SDS011;5911;51.036;6.972;2023-12-29T10:20:25;1.50;;;1.07;;
11709;SDS011;5911;51.036;6.972;2023-12-29T10:22:58;2.87;;;0.90;;
11709;SDS011;5911;51.036;6.972;2023-12-29T10:25:29;1.20;;;0.70;;
11709;SDS011;5911;51.036;6.972;2023-12-29T10:27:56;2.97;;;0.90;;
11709;SDS011;5911;51.036;6.972;2023-12-29T10:30:27;2.33;;;0.60;;
11709;SDS011;5911;51.036;6.972;2023-12-29T10:33:00;2.57;;;0.90;;
11709;SDS011;5911;51.036;6.972;2023-12-29T10:35:30;0.73;;;0.60;;
11709;SDS011;5911;51.036;6.972;2023-12-29T10:38:09;2.60;;;0.83;;
11709;SDS011;5911;51.036;6.972;2023-12-29T10:40:39;1.07;;;0.80;;
11709;SDS011;5911;51.036;6.972;2023-12-29T10:43:09;1.03;;;0.67;;
11709;SDS011;5911;51.036;6.972;2023-12-29T10:45:37;1.70;;;0.70;;
11709;SDS011;5911;51.036;6.972;2023-12-29T10:48:05;2.57;;;0.60;;
11709;SDS011;5911;51.036;6.972;2023-12-29T10:50:42;2.90;;;0.70;;
11709;SDS011;5911;51.036;6.972;2023-12-29T10:53:13;4.57;;;0.70;;
11709;SDS011;5911;51.036;6.972;2023-12-29T10:55:42;1.07;;;0.50;;
11709;SDS011;5911;51.036;6.972;2023-12-29T10:58:09;0.93;;;0.90;;
11709;SDS011;5911;51.036;6.972;2023-12-29T11:00:37;20.37;;;2.27;;
11709;SDS011;5911;51.036;6.972;2023-12-29T11:03:05;1.50;;;0.67;;
11709;SDS011;5911;51.036;6.972;2023-12-29T11:05:33;3.50;;;0.80;;
11709;SDS011;5911;51.036;6.972;2023-12-29T11:08:01;2.33;;;0.70;;
11709;SDS011;5911;51.036;6.972;2023-12-29T11:10:29;1.73;;;0.80;;
11709;SDS011;5911;51.036;6.972;2023-12-29T11:12:59;2.77;;;0.80;;
11709;SDS011;5911;51.036;6.972;2023-12-29T11:15:27;1.10;;;0.60;;
11709;SDS011;5911;51.036;6.972;2023-12-29T11:17:55;1.67;;;0.70;;
11709;SDS011;5911;51.036;6.972;2023-12-29T11:20:23;3.27;;;1.00;;
11709;SDS011;5911;51.036;6.972;2023-12-29T11:22:52;1.13;;;0.80;;
11709;SDS011;5911;51.036;6.972;2023-12-29T11:25:20;2.43;;;0.97;;
11709;SDS011;5911;51.036;6.972;2023-12-29T11:27:48;1.73;;;0.80;;
11709;SDS011;5911;51.036;6.972;2023-12-29T11:30:17;0.53;;;0.53;;
11709;SDS011;5911;51.036;6.972;2023-12-29T11:32:45;4.07;;;0.80;;
11709;SDS011;5911;51.036;6.972;2023-12-29T11:35:17;1.90;;;0.70;;
11709;SDS011;5911;51.036;6.972;2023-12-29T11:37:55;2.13;;;0.60;;
11709;SDS011;5911;51.036;6.972;2023-12-29T11:40:27;1.93;;;0.80;;
11709;SDS011;5911;51.036;6.972;2023-12-29T11:42:57;1.43;;;0.70;;
11709;SDS011;5911;51.036;6.972;2023-12-29T11:45:30;2.60;;;1.13;;
11709;SDS011;5911;51.036;6.972;2023-12-29T11:48:00;1.20;;;0.77;;
11709;SDS011;5911;51.036;6.972;2023-12-29T11:50:30;1.33;;;0.63;;
11709;SDS011;5911;51.036;6.972;2023-12-29T11:52:58;1.13;;;0.80;;
11709;SDS011;5911;51.036;6.972;2023-12-29T11:55:29;2.47;;;0.93;;
11709;SDS011;5911;51.036;6.972;2023-12-29T11:57:57;2.40;;;1.17;;
11709;SDS011;5911;51.036;6.972;2023-12-29T12:00:41;1.23;;;0.90;;
11709;SDS011;5911;51.036;6.972;2023-12-29T12:03:13;1.67;;;0.90;;
11709;SDS011;5911;51.036;6.972;2023-12-29T12:05:45;1.43;;;0.70;;
11709;SDS011;5911;51.036;6.972;2023-12-29T12:08:26;1.40;;;0.90;;
11709;SDS011;5911;51.036;6.972;2023-12-29T12:10:53;1.77;;;0.77;;
11709;SDS011;5911;51.036;6.972;2023-12-29T12:16:09;2.47;;;0.80;;
11709;SDS011;5911;51.036;6.972;2023-12-29T12:18:37;3.53;;;0.63;;
11709;SDS011;5911;51.036;6.972;2023-12-29T12:21:05;3.80;;;1.20;;
11709;SDS011;5911;51.036;6.972;2023-12-29T12:23:34;2.90;;;1.25;;
11709;SDS011;5911;51.036;6.972;2023-12-29T12:26:03;2.38;;;0.60;;
11709;SDS011;5911;51.036;6.972;2023-12-29T12:28:32;1.05;;;0.88;;
11709;SDS011;5911;51.036;6.972;2023-12-29T12:31:04;1.13;;;0.70;;
11709;SDS011;5911;51.036;6.972;2023-12-29T12:33:33;4.65;;;0.80;;
11709;SDS011;5911;51.036;6.972;2023-12-29T12:36:01;2.77;;;0.87;;
11709;SDS011;5911;51.036;6.972;2023-12-29T12:38:29;1.95;;;0.85;;
11709;SDS011;5911;51.036;6.972;2023-12-29T12:41:08;0.85;;;0.70;;
11709;SDS011;5911;51.036;6.972;2023-12-29T12:43:36;1.00;;;0.70;;
11709;SDS011;5911;51.036;6.972;2023-12-29T12:46:07;0.70;;;0.50;;
11709;SDS011;5911;51.036;6.972;2023-12-29T12:48:41;2.80;;;1.17;;
11709;SDS011;5911;51.036;6.972;2023-12-29T12:51:10;1.90;;;0.60;;
11709;SDS011;5911;51.036;6.972;2023-12-29T12:53:39;0.85;;;0.60;;
11709;SDS011;5911;51.036;6.972;2023-12-29T12:56:06;1.98;;;0.60;;
11709;SDS011;5911;51.036;6.972;2023-12-29T12:58:34;1.80;;;0.70;;
11709;SDS011;5911;51.036;6.972;2023-12-29T13:01:02;1.53;;;0.53;;
11709;SDS011;5911;51.036;6.972;2023-12-29T13:03:30;1.47;;;0.70;;
11709;SDS011;5911;51.036;6.972;2023-12-29T13:06:00;1.02;;;0.70;;
11709;SDS011;5911;51.036;6.972;2023-12-29T13:08:28;1.00;;;0.70;;
11709;SDS011;5911;51.036;6.972;2023-12-29T13:11:05;1.08;;;0.63;;
11709;SDS011;5911;51.036;6.972;2023-12-29T13:13:37;1.35;;;0.65;;
11709;SDS011;5911;51.036;6.972;2023-12-29T13:16:04;3.05;;;0.60;;
11709;SDS011;5911;51.036;6.972;2023-12-29T13:18:32;1.33;;;0.60;;
11709;SDS011;5911;51.036;6.972;2023-12-29T13:21:01;1.30;;;0.40;;
11709;SDS011;5911;51.036;6.972;2023-12-29T13:23:30;0.88;;;0.60;;
11709;SDS011;5911;51.036;6.972;2023-12-29T13:25:59;1.08;;;0.60;;
11709;SDS011;5911;51.036;6.972;2023-12-29T13:28:26;0.45;;;0.45;;
11709;SDS011;5911;51.036;6.972;2023-12-29T13:30:54;0.50;;;0.47;;
11709;SDS011;5911;51.036;6.972;2023-12-29T13:33:24;1.07;;;0.60;;
11709;SDS011;5911;51.036;6.972;2023-12-29T13:35:54;1.17;;;0.50;;
11709;SDS011;5911;51.036;6.972;2023-12-29T13:38:36;0.73;;;0.68;;
11709;SDS011;5911;51.036;6.972;2023-12-29T13:41:04;1.00;;;0.63;;
11709;SDS011;5911;51.036;6.972;2023-12-29T13:43:35;2.28;;;0.70;;
11709;SDS011;5911;51.036;6.972;2023-12-29T13:46:04;1.75;;;0.80;;
11709;SDS011;5911;51.036;6.972;2023-12-29T13:48:32;0.77;;;0.55;;
11709;SDS011;5911;51.036;6.972;2023-12-29T13:51:00;0.73;;;0.60;;
11709;SDS011;5911;51.036;6.972;2023-12-29T13:53:28;1.15;;;0.60;;
11709;SDS011;5911;51.036;6.972;2023-12-29T13:56:06;0.60;;;0.60;;
11709;SDS011;5911;51.036;6.972;2023-12-29T13:58:34;1.73;;;0.87;;
11709;SDS011;5911;51.036;6.972;2023-12-29T14:01:01;1.17;;;0.60;;
11709;SDS011;5911;51.036;6.972;2023-12-29T14:03:30;1.70;;;0.45;;
11709;SDS011;5911;51.036;6.972;2023-12-29T14:06:00;0.40;;;0.40;;
11709;SDS011;5911;51.036;6.972;2023-12-29T14:08:31;1.60;;;0.63;;
11709;SDS011;5911;51.036;6.972;2023-12-29T14:11:01;0.67;;;0.30;;
11709;SDS011;5911;51.036;6.972;2023-12-29T14:13:35;0.90;;;0.60;;
11709;SDS011;5911;51.036;6.972;2023-12-29T14:16:02;4.53;;;0.60;;
11709;SDS011;5911;51.036;6.972;2023-12-29T14:18:38;1.27;;;0.50;;
11709;SDS011;5911;51.036;6.972;2023-12-29T14:21:20;1.38;;;0.60;;
11709;SDS011;5911;51.036;6.972;2023-12-29T14:23:56;1.15;;;0.40;;
11709;SDS011;5911;51.036;6.972;2023-12-29T14:26:24;0.30;;;0.30;;
11709;SDS011;5911;51.036;6.972;2023-12-29T14:29:00;0.30;;;0.30;;
11709;SDS011;5911;51.036;6.972;2023-12-29T14:31:28;1.50;;;0.57;;
11709;SDS011;5911;51.036;6.972;2023-12-29T14:33:55;0.60;;;0.50;;
11709;SDS011;5911;51.036;6.972;2023-12-29T14:36:23;0.88;;;0.63;;
11709;SDS011;5911;51.036;6.972;2023-12-29T14:38:51;1.05;;;0.50;;
11709;SDS011;5911;51.036;6.972;2023-12-29T14:41:18;0.80;;;0.57;;
11709;SDS011;5911;51.036;6.972;2023-12-29T14:43:46;2.45;;;0.60;;
11709;SDS011;5911;51.036;6.972;2023-12-29T14:46:14;0.93;;;0.80;;
11709;SDS011;5911;51.036;6.972;2023-12-29T14:48:42;0.55;;;0.55;;
11709;SDS011;5911;51.036;6.972;2023-12-29T14:51:10;0.93;;;0.60;;
11709;SDS011;5911;51.036;6.972;2023-12-29T14:53:38;0.53;;;0.50;;
11709;SDS011;5911;51.036;6.972;2023-12-29T14:56:06;1.03;;;0.77;;
11709;SDS011;5911;51.036;6.972;2023-12-29T14:58:33;0.60;;;0.60;;
11709;SDS011;5911;51.036;6.972;2023-12-29T15:01:02;0.70;;;0.60;;
11709;SDS011;5911;51.036;6.972;2023-12-29T15:03:32;1.00;;;0.60;;
11709;SDS011;5911;51.036;6.972;2023-12-29T15:05:59;0.93;;;0.60;;
11709;SDS011;5911;51.036;6.972;2023-12-29T15:08:27;1.85;;;0.63;;
11709;SDS011;5911;51.036;6.972;2023-12-29T15:11:01;0.43;;;0.40;;
11709;SDS011;5911;51.036;6.972;2023-12-29T15:13:29;0.93;;;0.50;;